sensor_id;sensor_type;location;lat;lon;timestamp;P1;durP1;ratioP1;P2;durP2;ratioP2
77701;SDS011;66868;42.708;23.404;2023-05-24T00:02:18;8.02;;;5.80;;
77701;SDS011;66868;42.708;23.404;2023-05-24T00:04:44;7.43;;;6.60;;
77701;SDS011;66868;42.708;23.404;2023-05-24T00:07:09;6.47;;;5.47;;
77701;SDS011;66868;42.708;23.404;2023-05-24T00:09:35;8.00;;;6.53;;
77701;SDS011;66868;42.708;23.404;2023-05-24T00:12:00;9.27;;;6.07;;
77701;SDS011;66868;42.708;23.404;2023-05-24T00:14:25;7.75;;;5.93;;
77701;SDS011;66868;42.708;23.404;2023-05-24T00:16:51;6.82;;;6.25;;
77701;SDS011;66868;42.708;23.404;2023-05-24T00:19:16;7.22;;;6.60;;
77701;SDS011;66868;42.708;23.404;2023-05-24T00:21:46;7.03;;;6.32;;
77701;SDS011;66868;42.708;23.404;2023-05-24T00:24:12;9.20;;;7.35;;
77701;SDS011;66868;42.708;23.404;2023-05-24T00:26:38;10.65;;;7.30;;
77701;SDS011;66868;42.708;23.404;2023-05-24T00:29:03;7.78;;;7.07;;
77701;SDS011;66868;42.708;23.404;2023-05-24T00:31:29;8.23;;;6.32;;
77701;SDS011;66868;42.708;23.404;2023-05-24T00:33:54;9.23;;;6.90;;
77701;SDS011;66868;42.708;23.404;2023-05-24T00:36:20;6.38;;;5.85;;
77701;SDS011;66868;42.708;23.404;2023-05-24T00:38:45;9.40;;;6.72;;
77701;SDS011;66868;42.708;23.404;2023-05-24T00:41:11;8.73;;;6.00;;
77701;SDS011;66868;42.708;23.404;2023-05-24T00:43:36;8.63;;;5.97;;
77701;SDS011;66868;42.708;23.404;2023-05-24T00:48:39;6.70;;;5.93;;
77701;SDS011;66868;42.708;23.404;2023-05-24T00:51:05;6.45;;;5.90;;
77701;SDS011;66868;42.708;23.404;2023-05-24T00:53:31;6.35;;;5.75;;
77701;SDS011;66868;42.708;23.404;2023-05-24T00:55:57;7.15;;;6.00;;
77701;SDS011;66868;42.708;23.404;2023-05-24T00:58:24;7.50;;;5.97;;
77701;SDS011;66868;42.708;23.404;2023-05-24T01:00:54;10.98;;;6.68;;
77701;SDS011;66868;42.708;23.404;2023-05-24T01:03:23;7.82;;;5.60;;
77701;SDS011;66868;42.708;23.404;2023-05-24T01:05:53;6.72;;;5.50;;
77701;SDS011;66868;42.708;23.404;2023-05-24T01:08:22;8.73;;;6.20;;
77701;SDS011;66868;42.708;23.404;2023-05-24T01:10:54;8.13;;;4.80;;
77701;SDS011;66868;42.708;23.404;2023-05-24T01:13:32;14.57;;;5.75;;
77701;SDS011;66868;42.708;23.404;2023-05-24T01:16:10;7.05;;;5.90;;
77701;SDS011;66868;42.708;23.404;2023-05-24T01:18:45;7.97;;;5.47;;
77701;SDS011;66868;42.708;23.404;2023-05-24T01:29:01;5.80;;;5.38;;
77701;SDS011;66868;42.708;23.404;2023-05-24T01:31:27;8.05;;;5.85;;
77701;SDS011;66868;42.708;23.404;2023-05-24T01:33:52;7.68;;;5.97;;
77701;SDS011;66868;42.708;23.404;2023-05-24T01:36:18;12.18;;;5.45;;
77701;SDS011;66868;42.708;23.404;2023-05-24T01:38:43;5.95;;;5.53;;
77701;SDS011;66868;42.708;23.404;2023-05-24T01:44:13;6.90;;;5.20;;
77701;SDS011;66868;42.708;23.404;2023-05-24T01:46:52;7.65;;;4.88;;
77701;SDS011;66868;42.708;23.404;2023-05-24T01:49:28;5.78;;;4.80;;
77701;SDS011;66868;42.708;23.404;2023-05-24T01:52:02;6.22;;;5.72;;
77701;SDS011;66868;42.708;23.404;2023-05-24T01:54:32;6.70;;;5.50;;
77701;SDS011;66868;42.708;23.404;2023-05-24T01:57:04;5.57;;;5.07;;
77701;SDS011;66868;42.708;23.404;2023-05-24T01:59:32;5.80;;;5.38;;
77701;SDS011;66868;42.708;23.404;2023-05-24T02:01:59;5.70;;;5.18;;
77701;SDS011;66868;42.708;23.404;2023-05-24T02:04:25;5.78;;;5.38;;
77701;SDS011;66868;42.708;23.404;2023-05-24T02:06:50;7.32;;;5.45;;
77701;SDS011;66868;42.708;23.404;2023-05-24T02:09:16;5.45;;;5.05;;
77701;SDS011;66868;42.708;23.404;2023-05-24T02:11:41;9.63;;;5.65;;
77701;SDS011;66868;42.708;23.404;2023-05-24T02:14:07;6.57;;;6.13;;
77701;SDS011;66868;42.708;23.404;2023-05-24T02:16:32;9.38;;;5.63;;
77701;SDS011;66868;42.708;23.404;2023-05-24T02:18:58;6.45;;;5.85;;
77701;SDS011;66868;42.708;23.404;2023-05-24T02:21:23;7.28;;;5.47;;
77701;SDS011;66868;42.708;23.404;2023-05-24T02:23:49;15.70;;;7.05;;
77701;SDS011;66868;42.708;23.404;2023-05-24T02:26:15;6.97;;;5.95;;
77701;SDS011;66868;42.708;23.404;2023-05-24T02:28:42;6.40;;;5.80;;
77701;SDS011;66868;42.708;23.404;2023-05-24T02:31:08;9.40;;;5.95;;
77701;SDS011;66868;42.708;23.404;2023-05-24T02:33:34;6.25;;;5.75;;
77701;SDS011;66868;42.708;23.404;2023-05-24T02:36:01;6.30;;;5.80;;
77701;SDS011;66868;42.708;23.404;2023-05-24T02:38:27;8.75;;;5.80;;
77701;SDS011;66868;42.708;23.404;2023-05-24T02:40:52;9.52;;;6.10;;
77701;SDS011;66868;42.708;23.404;2023-05-24T02:43:17;7.30;;;5.78;;
77701;SDS011;66868;42.708;23.404;2023-05-24T02:45:43;7.45;;;5.68;;
77701;SDS011;66868;42.708;23.404;2023-05-24T02:48:08;6.28;;;5.78;;
77701;SDS011;66868;42.708;23.404;2023-05-24T02:50:34;6.50;;;5.90;;
77701;SDS011;66868;42.708;23.404;2023-05-24T02:53:00;7.63;;;6.93;;
77701;SDS011;66868;42.708;23.404;2023-05-24T02:55:26;7.18;;;6.57;;
77701;SDS011;66868;42.708;23.404;2023-05-24T02:57:53;7.03;;;6.40;;
77701;SDS011;66868;42.708;23.404;2023-05-24T03:00:18;11.02;;;6.15;;
77701;SDS011;66868;42.708;23.404;2023-05-24T03:02:44;10.25;;;5.97;;
77701;SDS011;66868;42.708;23.404;2023-05-24T03:05:11;6.47;;;5.68;;
77701;SDS011;66868;42.708;23.404;2023-05-24T03:07:37;6.85;;;5.60;;
77701;SDS011;66868;42.708;23.404;2023-05-24T03:10:02;6.78;;;6.07;;
77701;SDS011;66868;42.708;23.404;2023-05-24T03:12:28;6.50;;;5.90;;
77701;SDS011;66868;42.708;23.404;2023-05-24T03:14:53;5.97;;;5.30;;
77701;SDS011;66868;42.708;23.404;2023-05-24T03:17:18;14.70;;;5.60;;
77701;SDS011;66868;42.708;23.404;2023-05-24T03:19:44;10.48;;;5.75;;
77701;SDS011;66868;42.708;23.404;2023-05-24T03:22:09;6.45;;;5.82;;
77701;SDS011;66868;42.708;23.404;2023-05-24T03:24:34;8.98;;;6.55;;
77701;SDS011;66868;42.708;23.404;2023-05-24T03:27:02;6.95;;;6.25;;
77701;SDS011;66868;42.708;23.404;2023-05-24T03:29:28;7.53;;;6.72;;
77701;SDS011;66868;42.708;23.404;2023-05-24T03:31:53;7.05;;;6.35;;
77701;SDS011;66868;42.708;23.404;2023-05-24T03:34:19;7.55;;;6.43;;
77701;SDS011;66868;42.708;23.404;2023-05-24T03:36:44;30.00;;;8.35;;
77701;SDS011;66868;42.708;23.404;2023-05-24T03:39:09;9.38;;;6.90;;
77701;SDS011;66868;42.708;23.404;2023-05-24T03:41:35;6.70;;;6.13;;
77701;SDS011;66868;42.708;23.404;2023-05-24T03:44:00;7.32;;;6.60;;
77701;SDS011;66868;42.708;23.404;2023-05-24T03:46:25;6.75;;;6.07;;
77701;SDS011;66868;42.708;23.404;2023-05-24T03:48:51;7.15;;;6.50;;
77701;SDS011;66868;42.708;23.404;2023-05-24T03:51:16;9.25;;;6.28;;
77701;SDS011;66868;42.708;23.404;2023-05-24T03:53:42;7.97;;;6.95;;
77701;SDS011;66868;42.708;23.404;2023-05-24T03:56:07;6.95;;;6.43;;
77701;SDS011;66868;42.708;23.404;2023-05-24T03:58:33;7.70;;;6.88;;
77701;SDS011;66868;42.708;23.404;2023-05-24T04:00:58;7.32;;;6.63;;
77701;SDS011;66868;42.708;23.404;2023-05-24T04:03:25;15.35;;;7.13;;
77701;SDS011;66868;42.708;23.404;2023-05-24T04:05:50;7.28;;;6.70;;
77701;SDS011;66868;42.708;23.404;2023-05-24T04:08:17;11.15;;;7.75;;
77701;SDS011;66868;42.708;23.404;2023-05-24T04:10:43;9.80;;;7.38;;
77701;SDS011;66868;42.708;23.404;2023-05-24T04:13:08;8.85;;;8.05;;
77701;SDS011;66868;42.708;23.404;2023-05-24T04:15:34;9.35;;;8.32;;
77701;SDS011;66868;42.708;23.404;2023-05-24T04:18:00;13.77;;;12.35;;
77701;SDS011;66868;42.708;23.404;2023-05-24T04:20:27;21.60;;;15.05;;
77701;SDS011;66868;42.708;23.404;2023-05-24T04:22:53;18.25;;;16.40;;
77701;SDS011;66868;42.708;23.404;2023-05-24T04:25:20;46.63;;;39.97;;
77701;SDS011;66868;42.708;23.404;2023-05-24T04:27:45;38.25;;;33.78;;
77701;SDS011;66868;42.708;23.404;2023-05-24T04:30:14;29.38;;;24.90;;
77701;SDS011;66868;42.708;23.404;2023-05-24T04:32:40;19.10;;;15.98;;
77701;SDS011;66868;42.708;23.404;2023-05-24T04:35:08;13.38;;;10.82;;
77701;SDS011;66868;42.708;23.404;2023-05-24T04:37:34;23.05;;;9.90;;
77701;SDS011;66868;42.708;23.404;2023-05-24T04:39:59;15.05;;;9.23;;
77701;SDS011;66868;42.708;23.404;2023-05-24T04:42:24;12.00;;;8.18;;
77701;SDS011;66868;42.708;23.404;2023-05-24T04:44:51;10.68;;;8.20;;
77701;SDS011;66868;42.708;23.404;2023-05-24T04:47:16;10.45;;;7.50;;
77701;SDS011;66868;42.708;23.404;2023-05-24T04:49:42;13.98;;;8.68;;
77701;SDS011;66868;42.708;23.404;2023-05-24T04:52:07;11.80;;;8.20;;
77701;SDS011;66868;42.708;23.404;2023-05-24T04:54:32;32.08;;;8.95;;
77701;SDS011;66868;42.708;23.404;2023-05-24T04:56:58;16.83;;;8.43;;
77701;SDS011;66868;42.708;23.404;2023-05-24T04:59:23;11.38;;;8.38;;
77701;SDS011;66868;42.708;23.404;2023-05-24T05:01:49;11.95;;;8.13;;
77701;SDS011;66868;42.708;23.404;2023-05-24T05:04:14;14.55;;;8.15;;
77701;SDS011;66868;42.708;23.404;2023-05-24T05:06:40;11.18;;;7.97;;
77701;SDS011;66868;42.708;23.404;2023-05-24T05:09:08;11.77;;;8.40;;
77701;SDS011;66868;42.708;23.404;2023-05-24T05:11:36;10.90;;;7.40;;
77701;SDS011;66868;42.708;23.404;2023-05-24T05:14:02;12.90;;;8.65;;
77701;SDS011;66868;42.708;23.404;2023-05-24T05:16:27;8.68;;;7.82;;
77701;SDS011;66868;42.708;23.404;2023-05-24T05:18:53;9.43;;;7.55;;
77701;SDS011;66868;42.708;23.404;2023-05-24T05:21:18;9.82;;;7.25;;
77701;SDS011;66868;42.708;23.404;2023-05-24T05:23:44;9.13;;;8.20;;
77701;SDS011;66868;42.708;23.404;2023-05-24T05:26:09;10.85;;;8.10;;
77701;SDS011;66868;42.708;23.404;2023-05-24T05:28:35;14.70;;;8.63;;
77701;SDS011;66868;42.708;23.404;2023-05-24T05:31:01;13.40;;;8.90;;
77701;SDS011;66868;42.708;23.404;2023-05-24T05:33:26;12.70;;;8.45;;
77701;SDS011;66868;42.708;23.404;2023-05-24T05:35:52;9.55;;;8.60;;
77701;SDS011;66868;42.708;23.404;2023-05-24T05:38:17;10.18;;;8.93;;
77701;SDS011;66868;42.708;23.404;2023-05-24T05:40:42;15.02;;;9.80;;
77701;SDS011;66868;42.708;23.404;2023-05-24T05:43:08;14.35;;;9.82;;
77701;SDS011;66868;42.708;23.404;2023-05-24T05:45:33;17.40;;;8.88;;
77701;SDS011;66868;42.708;23.404;2023-05-24T05:47:59;10.18;;;9.27;;
77701;SDS011;66868;42.708;23.404;2023-05-24T05:50:24;10.10;;;9.10;;
77701;SDS011;66868;42.708;23.404;2023-05-24T05:52:50;10.52;;;9.43;;
77701;SDS011;66868;42.708;23.404;2023-05-24T05:55:15;10.80;;;9.75;;
77701;SDS011;66868;42.708;23.404;2023-05-24T05:57:41;12.15;;;9.65;;
77701;SDS011;66868;42.708;23.404;2023-05-24T06:00:07;10.55;;;9.52;;
77701;SDS011;66868;42.708;23.404;2023-05-24T06:02:33;18.70;;;9.25;;
77701;SDS011;66868;42.708;23.404;2023-05-24T06:04:58;16.00;;;10.68;;
77701;SDS011;66868;42.708;23.404;2023-05-24T06:07:24;50.22;;;10.55;;
77701;SDS011;66868;42.708;23.404;2023-05-24T06:09:50;11.35;;;8.88;;
77701;SDS011;66868;42.708;23.404;2023-05-24T06:12:15;13.55;;;9.07;;
77701;SDS011;66868;42.708;23.404;2023-05-24T06:14:40;14.50;;;8.68;;
77701;SDS011;66868;42.708;23.404;2023-05-24T06:17:06;13.07;;;8.40;;
77701;SDS011;66868;42.708;23.404;2023-05-24T06:19:31;10.98;;;7.95;;
77701;SDS011;66868;42.708;23.404;2023-05-24T06:21:57;9.35;;;8.35;;
77701;SDS011;66868;42.708;23.404;2023-05-24T06:24:23;13.25;;;8.65;;
77701;SDS011;66868;42.708;23.404;2023-05-24T06:26:49;13.30;;;9.18;;
77701;SDS011;66868;42.708;23.404;2023-05-24T06:29:16;8.88;;;7.55;;
77701;SDS011;66868;42.708;23.404;2023-05-24T06:31:46;9.45;;;8.18;;
77701;SDS011;66868;42.708;23.404;2023-05-24T06:34:12;9.90;;;7.97;;
77701;SDS011;66868;42.708;23.404;2023-05-24T06:36:40;9.05;;;7.97;;
77701;SDS011;66868;42.708;23.404;2023-05-24T06:39:10;10.73;;;8.05;;
77701;SDS011;66868;42.708;23.404;2023-05-24T06:41:37;14.82;;;8.55;;
77701;SDS011;66868;42.708;23.404;2023-05-24T06:44:03;20.65;;;8.02;;
77701;SDS011;66868;42.708;23.404;2023-05-24T06:46:28;20.33;;;8.00;;
77701;SDS011;66868;42.708;23.404;2023-05-24T06:48:54;12.05;;;8.98;;
77701;SDS011;66868;42.708;23.404;2023-05-24T06:51:19;10.50;;;8.27;;
77701;SDS011;66868;42.708;23.404;2023-05-24T06:53:45;11.50;;;8.98;;
77701;SDS011;66868;42.708;23.404;2023-05-24T06:56:11;14.10;;;9.05;;
77701;SDS011;66868;42.708;23.404;2023-05-24T06:58:37;10.07;;;8.30;;
77701;SDS011;66868;42.708;23.404;2023-05-24T07:01:02;10.65;;;9.07;;
77701;SDS011;66868;42.708;23.404;2023-05-24T07:03:28;9.43;;;8.43;;
77701;SDS011;66868;42.708;23.404;2023-05-24T07:05:57;12.70;;;8.80;;
77701;SDS011;66868;42.708;23.404;2023-05-24T07:08:25;12.07;;;8.88;;
77701;SDS011;66868;42.708;23.404;2023-05-24T07:10:52;9.82;;;8.73;;
77701;SDS011;66868;42.708;23.404;2023-05-24T07:13:18;9.63;;;8.13;;
77701;SDS011;66868;42.708;23.404;2023-05-24T07:15:44;9.48;;;8.13;;
77701;SDS011;66868;42.708;23.404;2023-05-24T07:18:10;9.90;;;7.95;;
77701;SDS011;66868;42.708;23.404;2023-05-24T07:20:36;17.67;;;8.57;;
77701;SDS011;66868;42.708;23.404;2023-05-24T07:23:02;14.15;;;8.40;;
77701;SDS011;66868;42.708;23.404;2023-05-24T07:25:28;13.52;;;8.35;;
77701;SDS011;66868;42.708;23.404;2023-05-24T07:27:54;14.75;;;7.00;;
77701;SDS011;66868;42.708;23.404;2023-05-24T07:30:19;8.93;;;7.97;;
77701;SDS011;66868;42.708;23.404;2023-05-24T07:32:45;12.80;;;7.05;;
77701;SDS011;66868;42.708;23.404;2023-05-24T07:35:11;13.95;;;6.65;;
77701;SDS011;66868;42.708;23.404;2023-05-24T07:37:40;6.53;;;6.03;;
77701;SDS011;66868;42.708;23.404;2023-05-24T07:40:06;9.02;;;6.15;;
77701;SDS011;66868;42.708;23.404;2023-05-24T07:42:35;6.70;;;6.13;;
77701;SDS011;66868;42.708;23.404;2023-05-24T07:45:01;11.57;;;6.43;;
77701;SDS011;66868;42.708;23.404;2023-05-24T07:47:26;12.18;;;6.65;;
77701;SDS011;66868;42.708;23.404;2023-05-24T07:49:53;7.95;;;6.50;;
77701;SDS011;66868;42.708;23.404;2023-05-24T07:52:18;10.13;;;6.50;;
77701;SDS011;66868;42.708;23.404;2023-05-24T07:54:44;6.75;;;6.00;;
77701;SDS011;66868;42.708;23.404;2023-05-24T07:57:10;10.95;;;6.93;;
77701;SDS011;66868;42.708;23.404;2023-05-24T07:59:36;13.40;;;7.53;;
77701;SDS011;66868;42.708;23.404;2023-05-24T08:02:01;11.20;;;7.07;;
77701;SDS011;66868;42.708;23.404;2023-05-24T08:04:29;9.18;;;6.25;;
77701;SDS011;66868;42.708;23.404;2023-05-24T08:06:55;16.77;;;6.75;;
77701;SDS011;66868;42.708;23.404;2023-05-24T08:09:22;9.85;;;6.05;;
77701;SDS011;66868;42.708;23.404;2023-05-24T08:11:47;7.65;;;6.95;;
77701;SDS011;66868;42.708;23.404;2023-05-24T08:14:12;11.43;;;7.70;;
77701;SDS011;66868;42.708;23.404;2023-05-24T08:16:38;6.47;;;5.88;;
77701;SDS011;66868;42.708;23.404;2023-05-24T08:19:03;8.02;;;5.68;;
77701;SDS011;66868;42.708;23.404;2023-05-24T08:21:29;10.80;;;4.47;;
77701;SDS011;66868;42.708;23.404;2023-05-24T08:23:55;5.63;;;5.15;;
77701;SDS011;66868;42.708;23.404;2023-05-24T08:26:20;5.43;;;4.95;;
77701;SDS011;66868;42.708;23.404;2023-05-24T08:28:46;5.65;;;5.25;;
77701;SDS011;66868;42.708;23.404;2023-05-24T08:31:11;6.53;;;4.65;;
77701;SDS011;66868;42.708;23.404;2023-05-24T08:33:37;4.20;;;3.90;;
77701;SDS011;66868;42.708;23.404;2023-05-24T08:36:02;4.93;;;3.80;;
77701;SDS011;66868;42.708;23.404;2023-05-24T08:38:28;3.33;;;3.17;;
77701;SDS011;66868;42.708;23.404;2023-05-24T08:40:53;4.47;;;3.03;;
77701;SDS011;66868;42.708;23.404;2023-05-24T08:43:19;4.70;;;3.03;;
77701;SDS011;66868;42.708;23.404;2023-05-24T08:45:46;2.78;;;2.65;;
77701;SDS011;66868;42.708;23.404;2023-05-24T08:48:13;3.47;;;3.35;;
77701;SDS011;66868;42.708;23.404;2023-05-24T08:50:39;7.05;;;3.75;;
77701;SDS011;66868;42.708;23.404;2023-05-24T08:53:06;3.95;;;2.97;;
77701;SDS011;66868;42.708;23.404;2023-05-24T08:55:33;6.18;;;3.20;;
77701;SDS011;66868;42.708;23.404;2023-05-24T08:58:00;7.85;;;2.78;;
77701;SDS011;66868;42.708;23.404;2023-05-24T09:00:25;3.67;;;3.38;;
77701;SDS011;66868;42.708;23.404;2023-05-24T09:02:51;5.20;;;3.13;;
77701;SDS011;66868;42.708;23.404;2023-05-24T09:05:17;3.38;;;2.95;;
77701;SDS011;66868;42.708;23.404;2023-05-24T09:07:46;6.15;;;2.90;;
77701;SDS011;66868;42.708;23.404;2023-05-24T09:10:13;4.88;;;3.80;;
77701;SDS011;66868;42.708;23.404;2023-05-24T09:12:41;9.88;;;3.42;;
77701;SDS011;66868;42.708;23.404;2023-05-24T09:15:09;33.80;;;19.38;;
77701;SDS011;66868;42.708;23.404;2023-05-24T09:17:35;18.17;;;13.05;;
77701;SDS011;66868;42.708;23.404;2023-05-24T09:20:03;5.68;;;5.25;;
77701;SDS011;66868;42.708;23.404;2023-05-24T09:22:31;3.10;;;3.00;;
77701;SDS011;66868;42.708;23.404;2023-05-24T09:25:03;4.13;;;3.47;;
77701;SDS011;66868;42.708;23.404;2023-05-24T09:27:30;3.22;;;3.05;;
77701;SDS011;66868;42.708;23.404;2023-05-24T09:29:58;10.38;;;3.13;;
77701;SDS011;66868;42.708;23.404;2023-05-24T09:32:23;3.50;;;3.28;;
77701;SDS011;66868;42.708;23.404;2023-05-24T09:34:52;3.35;;;3.15;;
77701;SDS011;66868;42.708;23.404;2023-05-24T09:37:19;4.78;;;3.10;;
77701;SDS011;66868;42.708;23.404;2023-05-24T09:39:46;5.70;;;3.05;;
77701;SDS011;66868;42.708;23.404;2023-05-24T09:42:19;3.85;;;3.15;;
77701;SDS011;66868;42.708;23.404;2023-05-24T09:45:07;4.18;;;2.95;;
77701;SDS011;66868;42.708;23.404;2023-05-24T09:47:35;6.30;;;3.25;;
77701;SDS011;66868;42.708;23.404;2023-05-24T09:50:01;3.08;;;2.67;;
77701;SDS011;66868;42.708;23.404;2023-05-24T09:52:28;3.83;;;3.20;;
77701;SDS011;66868;42.708;23.404;2023-05-24T09:54:54;18.25;;;12.25;;
77701;SDS011;66868;42.708;23.404;2023-05-24T09:57:20;15.68;;;5.97;;
77701;SDS011;66868;42.708;23.404;2023-05-24T09:59:49;6.05;;;3.20;;
77701;SDS011;66868;42.708;23.404;2023-05-24T10:02:16;3.20;;;2.67;;
77701;SDS011;66868;42.708;23.404;2023-05-24T10:04:45;8.32;;;3.53;;
77701;SDS011;66868;42.708;23.404;2023-05-24T10:07:11;6.00;;;2.80;;
77701;SDS011;66868;42.708;23.404;2023-05-24T10:09:37;2.88;;;2.72;;
77701;SDS011;66868;42.708;23.404;2023-05-24T10:12:05;5.95;;;3.40;;
77701;SDS011;66868;42.708;23.404;2023-05-24T10:14:32;7.25;;;2.80;;
77701;SDS011;66868;42.708;23.404;2023-05-24T10:17:00;5.60;;;2.58;;
77701;SDS011;66868;42.708;23.404;2023-05-24T10:19:28;2.50;;;2.30;;
77701;SDS011;66868;42.708;23.404;2023-05-24T10:21:54;7.00;;;2.70;;
77701;SDS011;66868;42.708;23.404;2023-05-24T10:24:23;8.82;;;2.67;;
77701;SDS011;66868;42.708;23.404;2023-05-24T10:26:53;2.72;;;2.53;;
77701;SDS011;66868;42.708;23.404;2023-05-24T10:29:26;2.28;;;2.17;;
77701;SDS011;66868;42.708;23.404;2023-05-24T10:32:00;4.70;;;2.60;;
77701;SDS011;66868;42.708;23.404;2023-05-24T10:34:28;10.43;;;2.60;;
77701;SDS011;66868;42.708;23.404;2023-05-24T10:36:55;4.30;;;2.53;;
77701;SDS011;66868;42.708;23.404;2023-05-24T10:39:23;3.45;;;2.67;;
77701;SDS011;66868;42.708;23.404;2023-05-24T10:41:49;2.90;;;2.70;;
77701;SDS011;66868;42.708;23.404;2023-05-24T10:44:17;2.75;;;2.50;;
77701;SDS011;66868;42.708;23.404;2023-05-24T10:49:27;3.75;;;2.60;;
77701;SDS011;66868;42.708;23.404;2023-05-24T10:51:59;5.43;;;2.78;;
77701;SDS011;66868;42.708;23.404;2023-05-24T10:54:26;3.17;;;3.03;;
77701;SDS011;66868;42.708;23.404;2023-05-24T10:56:51;3.17;;;2.80;;
77701;SDS011;66868;42.708;23.404;2023-05-24T10:59:21;6.07;;;2.85;;
77701;SDS011;66868;42.708;23.404;2023-05-24T11:01:55;2.78;;;2.67;;
77701;SDS011;66868;42.708;23.404;2023-05-24T11:04:22;2.53;;;2.33;;
77701;SDS011;66868;42.708;23.404;2023-05-24T11:09:14;2.90;;;2.70;;
77701;SDS011;66868;42.708;23.404;2023-05-24T11:11:45;2.97;;;2.78;;
77701;SDS011;66868;42.708;23.404;2023-05-24T11:14:13;5.25;;;2.70;;
77701;SDS011;66868;42.708;23.404;2023-05-24T11:16:44;4.55;;;3.10;;
77701;SDS011;66868;42.708;23.404;2023-05-24T11:21:39;2.72;;;2.63;;
77701;SDS011;66868;42.708;23.404;2023-05-24T11:24:08;6.18;;;3.17;;
77701;SDS011;66868;42.708;23.404;2023-05-24T11:26:34;2.75;;;2.53;;
77701;SDS011;66868;42.708;23.404;2023-05-24T11:29:00;3.25;;;2.40;;
77701;SDS011;66868;42.708;23.404;2023-05-24T11:31:25;3.97;;;2.65;;
77701;SDS011;66868;42.708;23.404;2023-05-24T11:33:51;4.18;;;2.90;;
77701;SDS011;66868;42.708;23.404;2023-05-24T11:36:17;2.78;;;2.67;;
77701;SDS011;66868;42.708;23.404;2023-05-24T11:38:44;13.70;;;3.03;;
77701;SDS011;66868;42.708;23.404;2023-05-24T11:41:11;4.18;;;2.58;;
77701;SDS011;66868;42.708;23.404;2023-05-24T11:43:37;6.68;;;2.95;;
77701;SDS011;66868;42.708;23.404;2023-05-24T11:46:02;3.42;;;2.35;;
77701;SDS011;66868;42.708;23.404;2023-05-24T11:48:28;4.18;;;2.75;;
77701;SDS011;66868;42.708;23.404;2023-05-24T11:50:54;7.75;;;2.58;;
77701;SDS011;66868;42.708;23.404;2023-05-24T11:53:20;2.70;;;2.55;;
77701;SDS011;66868;42.708;23.404;2023-05-24T11:55:46;2.55;;;2.42;;
77701;SDS011;66868;42.708;23.404;2023-05-24T12:00:41;4.35;;;2.92;;
77701;SDS011;66868;42.708;23.404;2023-05-24T12:03:07;6.05;;;2.97;;
77701;SDS011;66868;42.708;23.404;2023-05-24T12:05:33;8.30;;;2.95;;
77701;SDS011;66868;42.708;23.404;2023-05-24T12:08:04;4.85;;;2.53;;
77701;SDS011;66868;42.708;23.404;2023-05-24T12:10:33;2.90;;;2.60;;
77701;SDS011;66868;42.708;23.404;2023-05-24T12:12:59;5.65;;;3.28;;
77701;SDS011;66868;42.708;23.404;2023-05-24T12:15:26;2.65;;;2.45;;
77701;SDS011;66868;42.708;23.404;2023-05-24T12:17:51;3.20;;;2.88;;
77701;SDS011;66868;42.708;23.404;2023-05-24T12:20:17;8.93;;;2.83;;
77701;SDS011;66868;42.708;23.404;2023-05-24T12:22:53;3.40;;;2.63;;
77701;SDS011;66868;42.708;23.404;2023-05-24T12:25:19;20.83;;;3.50;;
77701;SDS011;66868;42.708;23.404;2023-05-24T12:27:52;3.63;;;3.08;;
77701;SDS011;66868;42.708;23.404;2023-05-24T12:30:23;5.30;;;2.85;;
77701;SDS011;66868;42.708;23.404;2023-05-24T12:32:50;4.32;;;2.78;;
77701;SDS011;66868;42.708;23.404;2023-05-24T12:35:17;2.83;;;2.63;;
77701;SDS011;66868;42.708;23.404;2023-05-24T12:37:45;5.68;;;3.20;;
77701;SDS011;66868;42.708;23.404;2023-05-24T12:40:16;4.10;;;3.80;;
77701;SDS011;66868;42.708;23.404;2023-05-24T12:42:44;4.85;;;2.50;;
77701;SDS011;66868;42.708;23.404;2023-05-24T12:45:15;7.65;;;2.95;;
77701;SDS011;66868;42.708;23.404;2023-05-24T12:47:46;6.00;;;3.28;;
77701;SDS011;66868;42.708;23.404;2023-05-24T12:50:30;2.92;;;2.58;;
77701;SDS011;66868;42.708;23.404;2023-05-24T12:52:55;4.30;;;2.58;;
77701;SDS011;66868;42.708;23.404;2023-05-24T12:55:22;4.05;;;2.72;;
77701;SDS011;66868;42.708;23.404;2023-05-24T12:57:49;5.22;;;2.20;;
77701;SDS011;66868;42.708;23.404;2023-05-24T13:00:25;6.32;;;2.58;;
77701;SDS011;66868;42.708;23.404;2023-05-24T13:02:52;3.47;;;2.65;;
77701;SDS011;66868;42.708;23.404;2023-05-24T13:05:20;3.90;;;3.38;;
77701;SDS011;66868;42.708;23.404;2023-05-24T13:07:46;2.40;;;2.25;;
77701;SDS011;66868;42.708;23.404;2023-05-24T13:10:12;2.63;;;2.42;;
77701;SDS011;66868;42.708;23.404;2023-05-24T13:12:37;7.65;;;2.60;;
77701;SDS011;66868;42.708;23.404;2023-05-24T13:15:03;7.82;;;2.70;;
77701;SDS011;66868;42.708;23.404;2023-05-24T13:17:29;3.95;;;2.30;;
77701;SDS011;66868;42.708;23.404;2023-05-24T13:19:55;4.63;;;2.58;;
77701;SDS011;66868;42.708;23.404;2023-05-24T13:22:23;2.85;;;2.42;;
77701;SDS011;66868;42.708;23.404;2023-05-24T13:24:48;3.35;;;2.63;;
77701;SDS011;66868;42.708;23.404;2023-05-24T13:27:13;3.35;;;2.72;;
77701;SDS011;66868;42.708;23.404;2023-05-24T13:29:39;6.20;;;3.00;;
77701;SDS011;66868;42.708;23.404;2023-05-24T13:32:04;7.07;;;2.72;;
77701;SDS011;66868;42.708;23.404;2023-05-24T13:34:30;11.80;;;2.92;;
77701;SDS011;66868;42.708;23.404;2023-05-24T13:36:57;8.77;;;3.50;;
77701;SDS011;66868;42.708;23.404;2023-05-24T13:39:24;9.30;;;3.38;;
77701;SDS011;66868;42.708;23.404;2023-05-24T13:41:50;7.25;;;3.22;;
77701;SDS011;66868;42.708;23.404;2023-05-24T13:44:15;5.63;;;3.30;;
77701;SDS011;66868;42.708;23.404;2023-05-24T13:46:41;9.15;;;4.05;;
77701;SDS011;66868;42.708;23.404;2023-05-24T13:49:07;5.80;;;3.60;;
77701;SDS011;66868;42.708;23.404;2023-05-24T13:51:33;5.07;;;3.53;;
77701;SDS011;66868;42.708;23.404;2023-05-24T13:53:59;4.30;;;3.15;;
77701;SDS011;66868;42.708;23.404;2023-05-24T13:56:25;5.32;;;3.08;;
77701;SDS011;66868;42.708;23.404;2023-05-24T13:58:56;6.72;;;3.05;;
77701;SDS011;66868;42.708;23.404;2023-05-24T14:01:22;9.30;;;2.75;;
77701;SDS011;66868;42.708;23.404;2023-05-24T14:03:48;4.45;;;3.00;;
77701;SDS011;66868;42.708;23.404;2023-05-24T14:06:13;5.50;;;2.97;;
77701;SDS011;66868;42.708;23.404;2023-05-24T14:08:39;5.78;;;3.03;;
77701;SDS011;66868;42.708;23.404;2023-05-24T14:11:04;6.00;;;3.03;;
77701;SDS011;66868;42.708;23.404;2023-05-24T14:13:30;2.70;;;2.60;;
77701;SDS011;66868;42.708;23.404;2023-05-24T14:15:56;3.20;;;2.92;;
77701;SDS011;66868;42.708;23.404;2023-05-24T14:18:21;3.42;;;3.00;;
77701;SDS011;66868;42.708;23.404;2023-05-24T14:20:46;18.33;;;5.47;;
77701;SDS011;66868;42.708;23.404;2023-05-24T14:23:12;19.25;;;12.43;;
77701;SDS011;66868;42.708;23.404;2023-05-24T14:25:37;6.75;;;4.80;;
77701;SDS011;66868;42.708;23.404;2023-05-24T14:28:03;7.68;;;3.60;;
77701;SDS011;66868;42.708;23.404;2023-05-24T14:30:29;3.60;;;3.17;;
77701;SDS011;66868;42.708;23.404;2023-05-24T14:32:55;6.25;;;3.42;;
77701;SDS011;66868;42.708;23.404;2023-05-24T14:35:21;17.02;;;4.38;;
77701;SDS011;66868;42.708;23.404;2023-05-24T14:37:47;3.05;;;2.95;;
77701;SDS011;66868;42.708;23.404;2023-05-24T14:40:12;3.60;;;2.80;;
77701;SDS011;66868;42.708;23.404;2023-05-24T14:42:38;3.97;;;3.30;;
77701;SDS011;66868;42.708;23.404;2023-05-24T14:45:03;3.58;;;3.28;;
77701;SDS011;66868;42.708;23.404;2023-05-24T14:47:29;3.25;;;2.95;;
77701;SDS011;66868;42.708;23.404;2023-05-24T14:49:54;6.82;;;3.85;;
77701;SDS011;66868;42.708;23.404;2023-05-24T14:52:20;9.00;;;3.30;;